sensor_id;sensor_type;location;lat;lon;timestamp;pressure;altitude;pressure_sealevel;temperature;humidity
61394;BME280;48555;50.952;-0.120;2023-04-24T00:00:11;100064.81;;;11.00;77.42
61394;BME280;48555;50.952;-0.120;2023-04-24T00:02:40;100074.19;;;11.02;77.25
61394;BME280;48555;50.952;-0.120;2023-04-24T00:05:07;100069.66;;;11.04;77.30
61394;BME280;48555;50.952;-0.120;2023-04-24T00:07:33;100070.75;;;11.02;77.13
61394;BME280;48555;50.952;-0.120;2023-04-24T00:09:59;100078.75;;;11.00;76.85
61394;BME280;48555;50.952;-0.120;2023-04-24T00:12:25;100071.16;;;10.97;76.73
61394;BME280;48555;50.952;-0.120;2023-04-24T00:14:51;100077.22;;;10.98;76.84
61394;BME280;48555;50.952;-0.120;2023-04-24T00:17:16;100073.19;;;10.94;76.65
61394;BME280;48555;50.952;-0.120;2023-04-24T00:19:45;100079.00;;;10.97;76.81
61394;BME280;48555;50.952;-0.120;2023-04-24T00:22:11;100077.47;;;10.95;76.69
61394;BME280;48555;50.952;-0.120;2023-04-24T00:24:38;100080.91;;;10.95;76.35
61394;BME280;48555;50.952;-0.120;2023-04-24T00:27:03;100082.69;;;10.95;76.50
61394;BME280;48555;50.952;-0.120;2023-04-24T00:29:29;100079.22;;;10.94;76.49
61394;BME280;48555;50.952;-0.120;2023-04-24T00:31:54;100077.28;;;10.86;76.40
61394;BME280;48555;50.952;-0.120;2023-04-24T00:34:19;100074.91;;;10.83;76.49
61394;BME280;48555;50.952;-0.120;2023-04-24T00:36:45;100084.81;;;10.80;76.71
61394;BME280;48555;50.952;-0.120;2023-04-24T00:39:11;100094.66;;;10.76;76.56
61394;BME280;48555;50.952;-0.120;2023-04-24T00:41:36;100095.19;;;10.70;76.41
61394;BME280;48555;50.952;-0.120;2023-04-24T00:44:02;100104.81;;;10.69;76.58
61394;BME280;48555;50.952;-0.120;2023-04-24T00:46:28;100101.06;;;10.62;76.89
61394;BME280;48555;50.952;-0.120;2023-04-24T00:48:53;100101.16;;;10.61;76.78
61394;BME280;48555;50.952;-0.120;2023-04-24T00:51:21;100109.00;;;10.61;76.76
61394;BME280;48555;50.952;-0.120;2023-04-24T00:53:46;100106.91;;;10.55;76.75
61394;BME280;48555;50.952;-0.120;2023-04-24T00:56:11;100099.56;;;10.49;76.91
61394;BME280;48555;50.952;-0.120;2023-04-24T00:58:37;100111.41;;;10.53;76.76
61394;BME280;48555;50.952;-0.120;2023-04-24T01:01:03;100114.03;;;10.53;76.73
61394;BME280;48555;50.952;-0.120;2023-04-24T01:03:32;100122.13;;;10.50;76.91
61394;BME280;48555;50.952;-0.120;2023-04-24T01:05:58;100125.00;;;10.46;76.98
61394;BME280;48555;50.952;-0.120;2023-04-24T01:08:25;100115.53;;;10.34;76.94
61394;BME280;48555;50.952;-0.120;2023-04-24T01:10:52;100131.78;;;10.38;77.36
61394;BME280;48555;50.952;-0.120;2023-04-24T01:13:20;100136.91;;;10.39;76.98
61394;BME280;48555;50.952;-0.120;2023-04-24T01:15:47;100136.44;;;10.34;77.30
61394;BME280;48555;50.952;-0.120;2023-04-24T01:18:13;100137.25;;;10.35;77.64
61394;BME280;48555;50.952;-0.120;2023-04-24T01:20:40;100139.88;;;10.35;77.50
61394;BME280;48555;50.952;-0.120;2023-04-24T01:23:08;100136.44;;;10.34;77.82
61394;BME280;48555;50.952;-0.120;2023-04-24T01:25:33;100140.94;;;10.32;77.78
61394;BME280;48555;50.952;-0.120;2023-04-24T01:28:00;100141.91;;;10.31;77.81
61394;BME280;48555;50.952;-0.120;2023-04-24T01:30:26;100140.84;;;10.34;78.08
61394;BME280;48555;50.952;-0.120;2023-04-24T01:32:52;100144.28;;;10.34;78.03
61394;BME280;48555;50.952;-0.120;2023-04-24T01:35:18;100134.22;;;10.30;77.87
61394;BME280;48555;50.952;-0.120;2023-04-24T01:37:44;100134.66;;;10.23;78.07
61394;BME280;48555;50.952;-0.120;2023-04-24T01:40:09;100145.22;;;10.22;78.07
61394;BME280;48555;50.952;-0.120;2023-04-24T01:42:35;100145.34;;;10.20;78.05
61394;BME280;48555;50.952;-0.120;2023-04-24T01:45:02;100143.69;;;10.19;78.09
61394;BME280;48555;50.952;-0.120;2023-04-24T01:47:29;100144.75;;;10.17;78.34
61394;BME280;48555;50.952;-0.120;2023-04-24T01:49:55;100142.63;;;10.11;78.29
61394;BME280;48555;50.952;-0.120;2023-04-24T01:52:20;100152.84;;;10.14;78.31
61394;BME280;48555;50.952;-0.120;2023-04-24T01:54:46;100154.75;;;10.12;78.39
61394;BME280;48555;50.952;-0.120;2023-04-24T01:57:13;100152.50;;;10.07;78.59
61394;BME280;48555;50.952;-0.120;2023-04-24T01:59:39;100148.94;;;10.08;78.76
61394;BME280;48555;50.952;-0.120;2023-04-24T02:02:04;100150.47;;;10.11;78.67
61394;BME280;48555;50.952;-0.120;2023-04-24T02:04:29;100143.22;;;10.14;78.79
61394;BME280;48555;50.952;-0.120;2023-04-24T02:06:55;100147.50;;;10.15;78.92
61394;BME280;48555;50.952;-0.120;2023-04-24T02:09:20;100152.16;;;10.12;78.97
61394;BME280;48555;50.952;-0.120;2023-04-24T02:11:46;100154.75;;;10.12;79.02
61394;BME280;48555;50.952;-0.120;2023-04-24T02:14:11;100152.38;;;10.09;78.64
61394;BME280;48555;50.952;-0.120;2023-04-24T02:16:37;100157.84;;;10.06;79.08
61394;BME280;48555;50.952;-0.120;2023-04-24T02:19:03;100151.09;;;10.03;78.86
61394;BME280;48555;50.952;-0.120;2023-04-24T02:21:28;100163.31;;;10.02;79.08
61394;BME280;48555;50.952;-0.120;2023-04-24T02:23:54;100167.59;;;10.04;78.65
61394;BME280;48555;50.952;-0.120;2023-04-24T02:26:19;100173.25;;;10.09;78.58
61394;BME280;48555;50.952;-0.120;2023-04-24T02:28:45;100175.78;;;10.10;78.33
61394;BME280;48555;50.952;-0.120;2023-04-24T02:31:10;100179.78;;;10.14;77.88
61394;BME280;48555;50.952;-0.120;2023-04-24T02:33:36;100183.03;;;10.18;77.53
61394;BME280;48555;50.952;-0.120;2023-04-24T02:36:02;100175.19;;;10.18;77.62
61394;BME280;48555;50.952;-0.120;2023-04-24T02:38:28;100176.25;;;10.15;77.36
61394;BME280;48555;50.952;-0.120;2023-04-24T02:40:54;100180.75;;;10.13;77.68
61394;BME280;48555;50.952;-0.120;2023-04-24T02:43:19;100188.72;;;10.12;77.55
61394;BME280;48555;50.952;-0.120;2023-04-24T02:45:45;100193.47;;;10.07;77.79
61394;BME280;48555;50.952;-0.120;2023-04-24T02:48:10;100196.19;;;10.05;77.71
61394;BME280;48555;50.952;-0.120;2023-04-24T02:50:36;100190.28;;;10.03;77.17
61394;BME280;48555;50.952;-0.120;2023-04-24T02:53:01;100193.72;;;10.04;77.48
61394;BME280;48555;50.952;-0.120;2023-04-24T02:55:26;100206.53;;;10.07;77.53
61394;BME280;48555;50.952;-0.120;2023-04-24T02:57:52;100196.19;;;10.05;77.26
61394;BME280;48555;50.952;-0.120;2023-04-24T03:00:17;100201.31;;;10.07;77.38
61394;BME280;48555;50.952;-0.120;2023-04-24T03:02:43;100202.47;;;10.02;77.52
61394;BME280;48555;50.952;-0.120;2023-04-24T03:05:08;100209.50;;;10.02;77.51
61394;BME280;48555;50.952;-0.120;2023-04-24T03:07:34;100208.56;;;10.03;77.47
61394;BME280;48555;50.952;-0.120;2023-04-24T03:09:59;100212.94;;;10.02;77.86
61394;BME280;48555;50.952;-0.120;2023-04-24T03:12:25;100213.78;;;10.03;78.19
61394;BME280;48555;50.952;-0.120;2023-04-24T03:14:50;100217.91;;;10.06;77.88
61394;BME280;48555;50.952;-0.120;2023-04-24T03:17:15;100215.19;;;10.07;78.12
61394;BME280;48555;50.952;-0.120;2023-04-24T03:19:41;100225.31;;;10.12;78.03
61394;BME280;48555;50.952;-0.120;2023-04-24T03:22:06;100217.69;;;10.09;78.25
61394;BME280;48555;50.952;-0.120;2023-04-24T03:24:31;100236.34;;;10.15;78.45
61394;BME280;48555;50.952;-0.120;2023-04-24T03:26:57;100242.25;;;10.17;78.42
61394;BME280;48555;50.952;-0.120;2023-04-24T03:29:22;100241.19;;;10.20;78.45
61394;BME280;48555;50.952;-0.120;2023-04-24T03:31:48;100243.47;;;10.24;78.39
61394;BME280;48555;50.952;-0.120;2023-04-24T03:34:13;100239.56;;;10.30;78.17
61394;BME280;48555;50.952;-0.120;2023-04-24T03:36:39;100243.84;;;10.31;78.15
61394;BME280;48555;50.952;-0.120;2023-04-24T03:39:04;100251.09;;;10.28;78.25
61394;BME280;48555;50.952;-0.120;2023-04-24T03:41:30;100246.06;;;10.24;78.35
61394;BME280;48555;50.952;-0.120;2023-04-24T03:43:56;100249.78;;;10.33;78.10
61394;BME280;48555;50.952;-0.120;2023-04-24T03:46:21;100257.63;;;10.33;78.04
61394;BME280;48555;50.952;-0.120;2023-04-24T03:48:46;100255.00;;;10.33;78.09
61394;BME280;48555;50.952;-0.120;2023-04-24T03:51:12;100257.88;;;10.30;77.90
61394;BME280;48555;50.952;-0.120;2023-04-24T03:53:37;100271.63;;;10.32;77.61
61394;BME280;48555;50.952;-0.120;2023-04-24T03:56:02;100267.25;;;10.33;77.72
61394;BME280;48555;50.952;-0.120;2023-04-24T03:58:28;100270.44;;;10.36;77.59
61394;BME280;48555;50.952;-0.120;2023-04-24T04:00:53;100274.03;;;10.35;77.73
61394;BME280;48555;50.952;-0.120;2023-04-24T04:03:19;100280.06;;;10.36;77.63
61394;BME280;48555;50.952;-0.120;2023-04-24T04:05:44;100282.44;;;10.39;77.54
61394;BME280;48555;50.952;-0.120;2023-04-24T04:08:10;100285.16;;;10.37;77.69
61394;BME280;48555;50.952;-0.120;2023-04-24T04:10:35;100288.50;;;10.39;77.50
61394;BME280;48555;50.952;-0.120;2023-04-24T04:13:00;100293.13;;;10.36;77.64
61394;BME280;48555;50.952;-0.120;2023-04-24T04:15:26;100287.75;;;10.26;77.66
61394;BME280;48555;50.952;-0.120;2023-04-24T04:17:51;100288.63;;;10.27;77.56
61394;BME280;48555;50.952;-0.120;2023-04-24T04:20:16;100300.75;;;10.28;78.07
61394;BME280;48555;50.952;-0.120;2023-04-24T04:22:42;100295.59;;;10.26;78.15
61394;BME280;48555;50.952;-0.120;2023-04-24T04:25:07;100298.44;;;10.23;78.17
61394;BME280;48555;50.952;-0.120;2023-04-24T04:27:33;100295.81;;;10.23;78.37
61394;BME280;48555;50.952;-0.120;2023-04-24T04:29:59;100292.75;;;10.18;78.15
61394;BME280;48555;50.952;-0.120;2023-04-24T04:32:33;100300.59;;;10.18;78.26
61394;BME280;48555;50.952;-0.120;2023-04-24T04:34:59;100307.34;;;10.20;78.70
61394;BME280;48555;50.952;-0.120;2023-04-24T04:37:29;100302.38;;;10.29;78.33
61394;BME280;48555;50.952;-0.120;2023-04-24T04:39:54;100304.28;;;10.38;77.88
61394;BME280;48555;50.952;-0.120;2023-04-24T04:42:20;100316.03;;;10.43;77.94
61394;BME280;48555;50.952;-0.120;2023-04-24T04:44:45;100321.41;;;10.42;77.58
61394;BME280;48555;50.952;-0.120;2023-04-24T04:47:11;100322.34;;;10.41;77.63
61394;BME280;48555;50.952;-0.120;2023-04-24T04:49:38;100325.69;;;10.43;77.89
61394;BME280;48555;50.952;-0.120;2023-04-24T04:52:03;100320.34;;;10.44;77.54
61394;BME280;48555;50.952;-0.120;2023-04-24T04:54:29;100327.13;;;10.47;77.75
61394;BME280;48555;50.952;-0.120;2023-04-24T04:56:54;100325.56;;;10.44;77.80
61394;BME280;48555;50.952;-0.120;2023-04-24T04:59:20;100324.72;;;10.44;77.73
61394;BME280;48555;50.952;-0.120;2023-04-24T05:01:46;100327.69;;;10.39;78.09
61394;BME280;48555;50.952;-0.120;2023-04-24T05:04:11;100330.41;;;10.38;78.20
61394;BME280;48555;50.952;-0.120;2023-04-24T05:06:36;100337.09;;;10.42;78.18
61394;BME280;48555;50.952;-0.120;2023-04-24T05:09:02;100335.16;;;10.44;78.40
61394;BME280;48555;50.952;-0.120;2023-04-24T05:11:28;100340.53;;;10.42;78.35
61394;BME280;48555;50.952;-0.120;2023-04-24T05:13:54;100340.88;;;10.38;78.43
61394;BME280;48555;50.952;-0.120;2023-04-24T05:16:20;100336.59;;;10.37;78.77
61394;BME280;48555;50.952;-0.120;2023-04-24T05:18:45;100346.97;;;10.38;78.76
61394;BME280;48555;50.952;-0.120;2023-04-24T05:21:11;100347.91;;;10.37;78.87
61394;BME280;48555;50.952;-0.120;2023-04-24T05:23:36;100351.22;;;10.39;78.94
61394;BME280;48555;50.952;-0.120;2023-04-24T05:26:01;100347.31;;;10.45;79.11
61394;BME280;48555;50.952;-0.120;2023-04-24T05:28:27;100347.56;;;10.53;79.25
61394;BME280;48555;50.952;-0.120;2023-04-24T05:30:54;100355.59;;;10.61;79.21
61394;BME280;48555;50.952;-0.120;2023-04-24T05:33:21;100353.22;;;10.69;79.07
61394;BME280;48555;50.952;-0.120;2023-04-24T05:35:47;100360.72;;;10.74;78.56
61394;BME280;48555;50.952;-0.120;2023-04-24T05:38:13;100355.50;;;10.74;78.63
61394;BME280;48555;50.952;-0.120;2023-04-24T05:40:39;100357.63;;;10.69;78.45
61394;BME280;48555;50.952;-0.120;2023-04-24T05:43:04;100361.66;;;10.73;78.39
61394;BME280;48555;50.952;-0.120;2023-04-24T05:45:30;100359.53;;;10.78;78.35
61394;BME280;48555;50.952;-0.120;2023-04-24T05:47:55;100362.63;;;10.83;78.43
61394;BME280;48555;50.952;-0.120;2023-04-24T05:50:21;100361.31;;;10.89;78.65
61394;BME280;48555;50.952;-0.120;2023-04-24T05:52:46;100359.75;;;10.98;78.31
61394;BME280;48555;50.952;-0.120;2023-04-24T05:55:11;100366.88;;;11.07;78.10
61394;BME280;48555;50.952;-0.120;2023-04-24T05:57:37;100359.53;;;11.33;77.93
61394;BME280;48555;50.952;-0.120;2023-04-24T06:00:03;100360.75;;;11.82;78.21
61394;BME280;48555;50.952;-0.120;2023-04-24T06:02:29;100364.56;;;12.41;77.08
61394;BME280;48555;50.952;-0.120;2023-04-24T06:04:58;100365.47;;;13.01;76.02
61394;BME280;48555;50.952;-0.120;2023-04-24T06:07:24;100370.41;;;13.54;74.65
61394;BME280;48555;50.952;-0.120;2023-04-24T06:09:51;100387.63;;;14.05;73.15
61394;BME280;48555;50.952;-0.120;2023-04-24T06:12:17;100391.03;;;14.45;72.05
61394;BME280;48555;50.952;-0.120;2023-04-24T06:14:42;100401.72;;;14.81;69.90
61394;BME280;48555;50.952;-0.120;2023-04-24T06:17:08;100405.16;;;15.09;69.25
61394;BME280;48555;50.952;-0.120;2023-04-24T06:19:33;100407.09;;;15.34;68.26
61394;BME280;48555;50.952;-0.120;2023-04-24T06:21:58;100413.56;;;15.58;66.54
61394;BME280;48555;50.952;-0.120;2023-04-24T06:24:27;100409.69;;;15.80;65.60
61394;BME280;48555;50.952;-0.120;2023-04-24T06:26:52;100408.38;;;16.02;64.25
61394;BME280;48555;50.952;-0.120;2023-04-24T06:29:18;100403.75;;;16.22;63.04
61394;BME280;48555;50.952;-0.120;2023-04-24T06:31:43;100403.88;;;16.46;62.32
61394;BME280;48555;50.952;-0.120;2023-04-24T06:34:08;100413.44;;;16.73;61.59
61394;BME280;48555;50.952;-0.120;2023-04-24T06:36:34;100417.38;;;16.95;60.43
61394;BME280;48555;50.952;-0.120;2023-04-24T06:39:00;100415.78;;;17.19;59.13
61394;BME280;48555;50.952;-0.120;2023-04-24T06:41:26;100412.03;;;17.38;58.43
61394;BME280;48555;50.952;-0.120;2023-04-24T06:43:52;100418.19;;;17.63;57.52
61394;BME280;48555;50.952;-0.120;2023-04-24T06:46:17;100411.63;;;17.83;56.70
61394;BME280;48555;50.952;-0.120;2023-04-24T06:48:43;100405.84;;;18.04;55.88
61394;BME280;48555;50.952;-0.120;2023-04-24T06:51:08;100408.13;;;18.24;55.35
61394;BME280;48555;50.952;-0.120;2023-04-24T06:53:34;100410.41;;;18.43;54.60
61394;BME280;48555;50.952;-0.120;2023-04-24T06:56:00;100412.66;;;18.63;53.87
61394;BME280;48555;50.952;-0.120;2023-04-24T06:58:25;100413.97;;;18.83;53.28
61394;BME280;48555;50.952;-0.120;2023-04-24T07:00:51;100415.00;;;19.05;52.70
61394;BME280;48555;50.952;-0.120;2023-04-24T07:03:16;100406.44;;;19.26;52.14
61394;BME280;48555;50.952;-0.120;2023-04-24T07:05:41;100410.97;;;19.48;51.78
61394;BME280;48555;50.952;-0.120;2023-04-24T07:08:07;100411.81;;;19.72;50.99
61394;BME280;48555;50.952;-0.120;2023-04-24T07:10:34;100414.22;;;19.82;50.18
61394;BME280;48555;50.952;-0.120;2023-04-24T07:13:00;100405.38;;;19.89;49.82
61394;BME280;48555;50.952;-0.120;2023-04-24T07:15:26;100404.75;;;20.02;49.42
61394;BME280;48555;50.952;-0.120;2023-04-24T07:17:52;100403.50;;;20.13;49.69
61394;BME280;48555;50.952;-0.120;2023-04-24T07:20:17;100404.06;;;20.23;49.10
61394;BME280;48555;50.952;-0.120;2023-04-24T07:22:42;100405.97;;;20.29;48.73
61394;BME280;48555;50.952;-0.120;2023-04-24T07:25:08;100420.94;;;20.30;48.61
61394;BME280;48555;50.952;-0.120;2023-04-24T07:27:35;100426.84;;;20.17;48.54
61394;BME280;48555;50.952;-0.120;2023-04-24T07:30:01;100423.25;;;20.10;48.80
61394;BME280;48555;50.952;-0.120;2023-04-24T07:32:27;100425.06;;;19.95;48.46
61394;BME280;48555;50.952;-0.120;2023-04-24T07:34:52;100427.63;;;19.88;48.75
61394;BME280;48555;50.952;-0.120;2023-04-24T07:37:17;100435.16;;;19.77;49.01
61394;BME280;48555;50.952;-0.120;2023-04-24T07:39:43;100436.44;;;19.81;49.35
61394;BME280;48555;50.952;-0.120;2023-04-24T07:42:08;100444.72;;;19.86;49.38
61394;BME280;48555;50.952;-0.120;2023-04-24T07:44:34;100440.34;;;19.70;49.30
61394;BME280;48555;50.952;-0.120;2023-04-24T07:46:59;100438.22;;;19.65;49.31
61394;BME280;48555;50.952;-0.120;2023-04-24T07:49:24;100439.00;;;19.74;49.38
61394;BME280;48555;50.952;-0.120;2023-04-24T07:51:50;100443.13;;;19.77;49.70
61394;BME280;48555;50.952;-0.120;2023-04-24T07:54:15;100439.97;;;19.73;50.04
61394;BME280;48555;50.952;-0.120;2023-04-24T07:56:43;100446.88;;;19.82;50.07
61394;BME280;48555;50.952;-0.120;2023-04-24T07:59:10;100437.22;;;19.89;49.81
61394;BME280;48555;50.952;-0.120;2023-04-24T08:01:36;100450.94;;;19.93;49.07
61394;BME280;48555;50.952;-0.120;2023-04-24T08:04:01;100440.16;;;19.94;49.33
61394;BME280;48555;50.952;-0.120;2023-04-24T08:06:27;100440.88;;;19.88;47.98
61394;BME280;48555;50.952;-0.120;2023-04-24T08:08:56;100444.56;;;19.79;48.97
61394;BME280;48555;50.952;-0.120;2023-04-24T08:11:21;100451.34;;;19.82;49.11
61394;BME280;48555;50.952;-0.120;2023-04-24T08:13:46;100447.47;;;19.92;49.13
61394;BME280;48555;50.952;-0.120;2023-04-24T08:16:12;100441.44;;;19.99;48.93
61394;BME280;48555;50.952;-0.120;2023-04-24T08:18:37;100452.00;;;20.07;48.83
61394;BME280;48555;50.952;-0.120;2023-04-24T08:21:03;100462.44;;;20.08;48.42
61394;BME280;48555;50.952;-0.120;2023-04-24T08:23:28;100456.16;;;19.86;47.83
61394;BME280;48555;50.952;-0.120;2023-04-24T08:25:54;100451.66;;;19.87;47.22
61394;BME280;48555;50.952;-0.120;2023-04-24T08:28:20;100449.31;;;19.92;47.70
61394;BME280;48555;50.952;-0.120;2023-04-24T08:30:46;100450.38;;;19.83;48.14
61394;BME280;48555;50.952;-0.120;2023-04-24T08:33:12;100452.16;;;19.59;47.43
61394;BME280;48555;50.952;-0.120;2023-04-24T08:35:37;100456.09;;;19.63;48.24
61394;BME280;48555;50.952;-0.120;2023-04-24T08:38:04;100458.44;;;19.58;47.99
61394;BME280;48555;50.952;-0.120;2023-04-24T08:40:34;100461.84;;;19.44;47.32
61394;BME280;48555;50.952;-0.120;2023-04-24T08:43:00;100452.88;;;19.22;47.56
61394;BME280;48555;50.952;-0.120;2023-04-24T08:45:26;100467.69;;;19.00;47.95
61394;BME280;48555;50.952;-0.120;2023-04-24T08:47:52;100457.84;;;18.77;48.87
61394;BME280;48555;50.952;-0.120;2023-04-24T08:50:20;100463.16;;;18.53;49.44
61394;BME280;48555;50.952;-0.120;2023-04-24T08:52:47;100444.84;;;18.27;49.69
61394;BME280;48555;50.952;-0.120;2023-04-24T08:55:12;100454.09;;;18.14;50.44
61394;BME280;48555;50.952;-0.120;2023-04-24T08:57:39;100450.66;;;17.98;50.96
61394;BME280;48555;50.952;-0.120;2023-04-24T09:00:07;100454.78;;;18.00;51.14
61394;BME280;48555;50.952;-0.120;2023-04-24T09:02:32;100457.44;;;18.00;51.58
61394;BME280;48555;50.952;-0.120;2023-04-24T09:05:00;100461.72;;;18.01;51.97
61394;BME280;48555;50.952;-0.120;2023-04-24T09:07:27;100455.63;;;18.01;52.45
61394;BME280;48555;50.952;-0.120;2023-04-24T09:09:55;100460.25;;;18.07;52.44
61394;BME280;48555;50.952;-0.120;2023-04-24T09:12:22;100462.56;;;18.10;52.37
61394;BME280;48555;50.952;-0.120;2023-04-24T09:14:47;100450.63;;;18.14;52.15
61394;BME280;48555;50.952;-0.120;2023-04-24T09:17:13;100457.25;;;18.18;52.11
61394;BME280;48555;50.952;-0.120;2023-04-24T09:19:38;100468.50;;;18.12;51.85
61394;BME280;48555;50.952;-0.120;2023-04-24T09:22:07;100452.47;;;18.22;51.50
61394;BME280;48555;50.952;-0.120;2023-04-24T09:24:34;100454.25;;;18.46;51.73
61394;BME280;48555;50.952;-0.120;2023-04-24T09:27:01;100460.53;;;18.45;50.87
61394;BME280;48555;50.952;-0.120;2023-04-24T09:29:27;100458.38;;;18.32;50.80
61394;BME280;48555;50.952;-0.120;2023-04-24T09:31:52;100456.59;;;18.24;50.11
61394;BME280;48555;50.952;-0.120;2023-04-24T09:34:26;100465.38;;;18.00;49.72
61394;BME280;48555;50.952;-0.120;2023-04-24T09:36:52;100473.13;;;17.85;49.60
61394;BME280;48555;50.952;-0.120;2023-04-24T09:39:18;100472.94;;;17.79;50.51
61394;BME280;48555;50.952;-0.120;2023-04-24T09:41:55;100482.31;;;17.73;51.10
61394;BME280;48555;50.952;-0.120;2023-04-24T09:44:27;100478.50;;;17.67;51.23
61394;BME280;48555;50.952;-0.120;2023-04-24T09:46:57;100478.50;;;17.59;51.30
61394;BME280;48555;50.952;-0.120;2023-04-24T09:49:30;100477.97;;;17.56;51.41
61394;BME280;48555;50.952;-0.120;2023-04-24T09:52:09;100486.06;;;17.46;51.63
61394;BME280;48555;50.952;-0.120;2023-04-24T09:54:35;100484.56;;;17.43;51.37
61394;BME280;48555;50.952;-0.120;2023-04-24T09:57:04;100479.78;;;17.39;51.45
61394;BME280;48555;50.952;-0.120;2023-04-24T09:59:30;100483.75;;;17.43;51.92
61394;BME280;48555;50.952;-0.120;2023-04-24T10:01:55;100490.34;;;17.39;52.13
61394;BME280;48555;50.952;-0.120;2023-04-24T10:04:24;100486.34;;;17.35;52.17
61394;BME280;48555;50.952;-0.120;2023-04-24T10:06:51;100488.22;;;17.42;51.54
61394;BME280;48555;50.952;-0.120;2023-04-24T10:09:18;100491.06;;;17.57;52.19
61394;BME280;48555;50.952;-0.120;2023-04-24T10:11:46;100488.47;;;17.82;52.01
61394;BME280;48555;50.952;-0.120;2023-04-24T10:14:13;100496.28;;;18.08;53.20
61394;BME280;48555;50.952;-0.120;2023-04-24T10:16:40;100499.59;;;18.34;52.56
61394;BME280;48555;50.952;-0.120;2023-04-24T10:19:06;100500.91;;;18.47;51.72
61394;BME280;48555;50.952;-0.120;2023-04-24T10:21:32;100491.16;;;18.47;51.33
61394;BME280;48555;50.952;-0.120;2023-04-24T10:23:58;100497.63;;;18.36;49.94
61394;BME280;48555;50.952;-0.120;2023-04-24T10:26:26;100504.72;;;18.20;49.69
61394;BME280;48555;50.952;-0.120;2023-04-24T10:28:52;100500.91;;;17.98;49.23
61394;BME280;48555;50.952;-0.120;2023-04-24T10:31:19;100501.84;;;17.72;48.89
61394;BME280;48555;50.952;-0.120;2023-04-24T10:33:45;100496.50;;;17.47;49.22
61394;BME280;48555;50.952;-0.120;2023-04-24T10:36:12;100502.53;;;17.32;50.47
61394;BME280;48555;50.952;-0.120;2023-04-24T10:38:40;100501.81;;;17.13;50.31
61394;BME280;48555;50.952;-0.120;2023-04-24T10:43:34;100506.25;;;16.78;51.07
61394;BME280;48555;50.952;-0.120;2023-04-24T10:46:04;100507.47;;;16.66;52.19
61394;BME280;48555;50.952;-0.120;2023-04-24T10:48:31;100504.09;;;16.56;52.86
61394;BME280;48555;50.952;-0.120;2023-04-24T10:50:57;100496.88;;;16.40;53.75
61394;BME280;48555;50.952;-0.120;2023-04-24T10:53:25;100505.63;;;16.41;53.79
61394;BME280;48555;50.952;-0.120;2023-04-24T10:56:02;100511.31;;;16.28;54.04
61394;BME280;48555;50.952;-0.120;2023-04-24T10:58:40;100520.44;;;16.16;54.62
61394;BME280;48555;50.952;-0.120;2023-04-24T11:01:06;100501.00;;;15.99;54.79
61394;BME280;48555;50.952;-0.120;2023-04-24T11:03:33;100515.78;;;15.92;55.10
61394;BME280;48555;50.952;-0.120;2023-04-24T11:06:05;100520.72;;;15.77;55.67
61394;BME280;48555;50.952;-0.120;2023-04-24T11:08:51;100517.19;;;15.58;56.64
61394;BME280;48555;50.952;-0.120;2023-04-24T11:11:17;100509.09;;;15.42;56.59
61394;BME280;48555;50.952;-0.120;2023-04-24T11:19:06;100521.53;;;14.94;58.36
61394;BME280;48555;50.952;-0.120;2023-04-24T11:21:49;100523.22;;;14.86;58.67
61394;BME280;48555;50.952;-0.120;2023-04-24T11:29:46;100531.75;;;14.97;60.12
61394;BME280;48555;50.952;-0.120;2023-04-24T11:32:38;100528.56;;;14.94;59.97
61394;BME280;48555;50.952;-0.120;2023-04-24T11:35:16;100534.41;;;14.88;59.87
61394;BME280;48555;50.952;-0.120;2023-04-24T11:37:43;100528.75;;;14.73;60.17
61394;BME280;48555;50.952;-0.120;2023-04-24T11:40:12;100521.19;;;14.60;60.66
61394;BME280;48555;50.952;-0.120;2023-04-24T11:42:39;100526.28;;;14.62;60.75
61394;BME280;48555;50.952;-0.120;2023-04-24T11:45:14;100524.06;;;14.76;61.01
61394;BME280;48555;50.952;-0.120;2023-04-24T11:47:41;100515.09;;;14.97;60.97
61394;BME280;48555;50.952;-0.120;2023-04-24T11:50:09;100515.91;;;15.07;61.10
61394;BME280;48555;50.952;-0.120;2023-04-24T11:52:40;100516.28;;;15.22;61.11
61394;BME280;48555;50.952;-0.120;2023-04-24T11:55:26;100512.34;;;15.26;60.58
61394;BME280;48555;50.952;-0.120;2023-04-24T11:57:58;100507.66;;;15.30;60.07
61394;BME280;48555;50.952;-0.120;2023-04-24T12:00:25;100508.19;;;15.33;59.65
61394;BME280;48555;50.952;-0.120;2023-04-24T12:03:02;100501.22;;;15.42;59.64
61394;BME280;48555;50.952;-0.120;2023-04-24T12:05:28;100500.38;;;15.41;59.75
61394;BME280;48555;50.952;-0.120;2023-04-24T12:07:56;100508.75;;;15.55;59.71
61394;BME280;48555;50.952;-0.120;2023-04-24T12:10:23;100507.50;;;15.59;60.15
61394;BME280;48555;50.952;-0.120;2023-04-24T12:12:49;100509.97;;;15.60;60.69
61394;BME280;48555;50.952;-0.120;2023-04-24T12:15:17;100502.72;;;15.72;61.69
61394;BME280;48555;50.952;-0.120;2023-04-24T12:17:43;100505.53;;;15.88;62.89
61394;BME280;48555;50.952;-0.120;2023-04-24T12:20:09;100504.22;;;15.93;62.88
61394;BME280;48555;50.952;-0.120;2023-04-24T12:22:52;100501.00;;;15.99;62.69
61394;BME280;48555;50.952;-0.120;2023-04-24T12:25:23;100505.13;;;16.19;62.44
61394;BME280;48555;50.952;-0.120;2023-04-24T12:28:08;100502.19;;;16.22;61.95
61394;BME280;48555;50.952;-0.120;2023-04-24T12:30:48;100514.16;;;16.17;61.02
61394;BME280;48555;50.952;-0.120;2023-04-24T12:33:18;100513.34;;;16.16;61.07
61394;BME280;48555;50.952;-0.120;2023-04-24T12:35:44;100512.53;;;16.16;60.69
61394;BME280;48555;50.952;-0.120;2023-04-24T12:38:12;100505.81;;;16.03;60.77
61394;BME280;48555;50.952;-0.120;2023-04-24T12:40:38;100507.00;;;15.91;60.79
61394;BME280;48555;50.952;-0.120;2023-04-24T12:43:15;100504.91;;;15.77;60.44
61394;BME280;48555;50.952;-0.120;2023-04-24T12:45:41;100511.75;;;15.70;60.69
61394;BME280;48555;50.952;-0.120;2023-04-24T12:48:06;100495.44;;;15.56;61.03
61394;BME280;48555;50.952;-0.120;2023-04-24T12:50:31;100495.94;;;15.42;61.76